sensor_id;sensor_type;location;lat;lon;timestamp;temperature;humidity
59208;DHT22;44977;53.132;6.408;2023-05-16T00:01:50;9.10;99.90
59208;DHT22;44977;53.132;6.408;2023-05-16T00:06:51;9.10;99.90
59208;DHT22;44977;53.132;6.408;2023-05-16T00:11:51;9.00;99.90
59208;DHT22;44977;53.132;6.408;2023-05-16T00:16:53;9.10;99.90
59208;DHT22;44977;53.132;6.408;2023-05-16T00:21:54;9.00;99.90
59208;DHT22;44977;53.132;6.408;2023-05-16T00:26:55;8.90;99.90
59208;DHT22;44977;53.132;6.408;2023-05-16T00:31:55;8.90;99.90
59208;DHT22;44977;53.132;6.408;2023-05-16T00:36:56;8.90;99.90
59208;DHT22;44977;53.132;6.408;2023-05-16T00:41:57;8.80;99.90
59208;DHT22;44977;53.132;6.408;2023-05-16T00:46:58;8.80;99.90
59208;DHT22;44977;53.132;6.408;2023-05-16T00:51:59;8.70;99.90
59208;DHT22;44977;53.132;6.408;2023-05-16T00:57:00;8.60;99.90
59208;DHT22;44977;53.132;6.408;2023-05-16T01:02:04;8.70;99.90
59208;DHT22;44977;53.132;6.408;2023-05-16T01:07:05;8.60;99.90
59208;DHT22;44977;53.132;6.408;2023-05-16T01:27:45;8.50;99.90
59208;DHT22;44977;53.132;6.408;2023-05-16T01:32:46;8.40;99.90
59208;DHT22;44977;53.132;6.408;2023-05-16T01:43:12;8.30;99.90
59208;DHT22;44977;53.132;6.408;2023-05-16T01:48:15;8.30;99.90
59208;DHT22;44977;53.132;6.408;2023-05-16T01:53:24;8.30;99.90
59208;DHT22;44977;53.132;6.408;2023-05-16T01:58:29;8.30;99.90
59208;DHT22;44977;53.132;6.408;2023-05-16T02:03:31;8.40;99.90
59208;DHT22;44977;53.132;6.408;2023-05-16T02:08:32;8.40;99.90
59208;DHT22;44977;53.132;6.408;2023-05-16T02:13:33;8.40;99.90
59208;DHT22;44977;53.132;6.408;2023-05-16T02:18:34;8.50;99.90
59208;DHT22;44977;53.132;6.408;2023-05-16T02:23:34;8.50;99.90
59208;DHT22;44977;53.132;6.408;2023-05-16T02:28:35;8.50;99.90
59208;DHT22;44977;53.132;6.408;2023-05-16T02:33:36;8.50;99.90
59208;DHT22;44977;53.132;6.408;2023-05-16T02:38:36;8.40;99.90
59208;DHT22;44977;53.132;6.408;2023-05-16T02:43:37;8.40;99.90
59208;DHT22;44977;53.132;6.408;2023-05-16T02:48:38;8.40;99.90
59208;DHT22;44977;53.132;6.408;2023-05-16T02:53:38;8.30;99.90
59208;DHT22;44977;53.132;6.408;2023-05-16T02:58:40;8.30;99.90
59208;DHT22;44977;53.132;6.408;2023-05-16T03:03:41;8.20;99.90
59208;DHT22;44977;53.132;6.408;2023-05-16T03:08:42;8.10;99.90
59208;DHT22;44977;53.132;6.408;2023-05-16T03:13:42;8.10;99.90
59208;DHT22;44977;53.132;6.408;2023-05-16T03:18:43;8.00;99.90
59208;DHT22;44977;53.132;6.408;2023-05-16T03:23:44;8.00;99.90
59208;DHT22;44977;53.132;6.408;2023-05-16T03:28:45;7.90;99.90
59208;DHT22;44977;53.132;6.408;2023-05-16T03:33:45;7.90;99.90
59208;DHT22;44977;53.132;6.408;2023-05-16T03:38:46;7.90;99.90
59208;DHT22;44977;53.132;6.408;2023-05-16T03:43:47;7.80;99.90
59208;DHT22;44977;53.132;6.408;2023-05-16T03:48:47;7.80;99.90
59208;DHT22;44977;53.132;6.408;2023-05-16T03:53:48;7.80;99.90
59208;DHT22;44977;53.132;6.408;2023-05-16T03:58:49;7.80;99.90
59208;DHT22;44977;53.132;6.408;2023-05-16T04:03:49;7.80;99.90
59208;DHT22;44977;53.132;6.408;2023-05-16T04:08:50;7.80;99.90
59208;DHT22;44977;53.132;6.408;2023-05-16T04:13:51;7.80;99.90
59208;DHT22;44977;53.132;6.408;2023-05-16T04:18:53;7.80;99.90
59208;DHT22;44977;53.132;6.408;2023-05-16T04:23:54;7.80;99.90
59208;DHT22;44977;53.132;6.408;2023-05-16T04:28:54;7.80;99.90
59208;DHT22;44977;53.132;6.408;2023-05-16T04:33:56;7.80;99.90
59208;DHT22;44977;53.132;6.408;2023-05-16T04:38:57;7.70;99.90
59208;DHT22;44977;53.132;6.408;2023-05-16T04:43:59;7.80;99.90
59208;DHT22;44977;53.132;6.408;2023-05-16T04:49:00;7.80;99.90
59208;DHT22;44977;53.132;6.408;2023-05-16T04:54:01;7.70;99.90
59208;DHT22;44977;53.132;6.408;2023-05-16T04:59:02;7.80;99.90
59208;DHT22;44977;53.132;6.408;2023-05-16T05:04:03;7.80;99.90
59208;DHT22;44977;53.132;6.408;2023-05-16T05:09:04;7.80;99.90
59208;DHT22;44977;53.132;6.408;2023-05-16T05:14:07;7.80;99.90
59208;DHT22;44977;53.132;6.408;2023-05-16T05:19:08;7.80;99.90
59208;DHT22;44977;53.132;6.408;2023-05-16T05:24:09;7.90;99.90
59208;DHT22;44977;53.132;6.408;2023-05-16T05:29:10;8.00;99.90
59208;DHT22;44977;53.132;6.408;2023-05-16T05:34:11;8.10;99.90
59208;DHT22;44977;53.132;6.408;2023-05-16T05:39:12;8.30;99.90
59208;DHT22;44977;53.132;6.408;2023-05-16T05:44:12;8.50;99.90
59208;DHT22;44977;53.132;6.408;2023-05-16T05:49:13;8.70;99.90
59208;DHT22;44977;53.132;6.408;2023-05-16T05:54:14;8.80;99.90
59208;DHT22;44977;53.132;6.408;2023-05-16T05:59:15;9.10;99.90
59208;DHT22;44977;53.132;6.408;2023-05-16T06:04:19;9.30;99.90
59208;DHT22;44977;53.132;6.408;2023-05-16T06:09:20;9.50;99.90
59208;DHT22;44977;53.132;6.408;2023-05-16T06:14:21;9.70;99.90
59208;DHT22;44977;53.132;6.408;2023-05-16T06:19:22;9.90;99.90
59208;DHT22;44977;53.132;6.408;2023-05-16T06:24:23;10.20;99.90
59208;DHT22;44977;53.132;6.408;2023-05-16T06:29:24;10.50;99.90
59208;DHT22;44977;53.132;6.408;2023-05-16T06:34:24;10.60;99.90
59208;DHT22;44977;53.132;6.408;2023-05-16T06:39:28;10.70;99.90
59208;DHT22;44977;53.132;6.408;2023-05-16T06:44:29;10.90;99.90
59208;DHT22;44977;53.132;6.408;2023-05-16T06:49:30;11.00;99.90
59208;DHT22;44977;53.132;6.408;2023-05-16T06:54:30;11.10;99.90
59208;DHT22;44977;53.132;6.408;2023-05-16T06:59:31;11.30;99.90
59208;DHT22;44977;53.132;6.408;2023-05-16T07:04:32;11.40;99.90
59208;DHT22;44977;53.132;6.408;2023-05-16T07:09:35;11.50;99.90
59208;DHT22;44977;53.132;6.408;2023-05-16T07:14:36;11.70;99.90
59208;DHT22;44977;53.132;6.408;2023-05-16T07:19:37;11.90;99.90
59208;DHT22;44977;53.132;6.408;2023-05-16T07:24:38;12.00;99.90
59208;DHT22;44977;53.132;6.408;2023-05-16T07:29:39;12.10;99.90
59208;DHT22;44977;53.132;6.408;2023-05-16T07:34:40;12.10;99.90
59208;DHT22;44977;53.132;6.408;2023-05-16T07:39:41;12.20;99.90
59208;DHT22;44977;53.132;6.408;2023-05-16T07:44:42;12.30;99.90
59208;DHT22;44977;53.132;6.408;2023-05-16T07:49:43;12.60;99.90
59208;DHT22;44977;53.132;6.408;2023-05-16T07:54:45;12.90;99.90
59208;DHT22;44977;53.132;6.408;2023-05-16T07:59:46;12.80;99.90
59208;DHT22;44977;53.132;6.408;2023-05-16T08:04:47;12.70;99.90
59208;DHT22;44977;53.132;6.408;2023-05-16T08:09:48;12.80;99.90
59208;DHT22;44977;53.132;6.408;2023-05-16T08:14:49;12.60;99.90
59208;DHT22;44977;53.132;6.408;2023-05-16T08:19:49;12.60;99.90
59208;DHT22;44977;53.132;6.408;2023-05-16T08:24:50;13.00;99.90
59208;DHT22;44977;53.132;6.408;2023-05-16T08:29:51;13.30;99.90
59208;DHT22;44977;53.132;6.408;2023-05-16T08:34:51;13.60;99.90
59208;DHT22;44977;53.132;6.408;2023-05-16T08:39:52;13.80;99.90
59208;DHT22;44977;53.132;6.408;2023-05-16T08:44:53;13.80;98.50
59208;DHT22;44977;53.132;6.408;2023-05-16T08:49:56;14.10;99.80
59208;DHT22;44977;53.132;6.408;2023-05-16T08:55:01;14.30;99.20
59208;DHT22;44977;53.132;6.408;2023-05-16T09:00:05;14.20;96.10
59208;DHT22;44977;53.132;6.408;2023-05-16T09:05:12;14.30;94.90
59208;DHT22;44977;53.132;6.408;2023-05-16T09:10:13;14.20;94.90
59208;DHT22;44977;53.132;6.408;2023-05-16T09:15:17;14.10;94.30
59208;DHT22;44977;53.132;6.408;2023-05-16T09:20:19;14.10;93.40
59208;DHT22;44977;53.132;6.408;2023-05-16T09:25:22;14.10;92.70
59208;DHT22;44977;53.132;6.408;2023-05-16T09:30:28;14.40;92.70
59208;DHT22;44977;53.132;6.408;2023-05-16T09:35:30;14.70;92.60
59208;DHT22;44977;53.132;6.408;2023-05-16T09:40:31;14.60;90.20
59208;DHT22;44977;53.132;6.408;2023-05-16T09:45:33;14.40;91.70
59208;DHT22;44977;53.132;6.408;2023-05-16T09:50:35;14.40;92.30
59208;DHT22;44977;53.132;6.408;2023-05-16T09:55:36;14.70;93.10
59208;DHT22;44977;53.132;6.408;2023-05-16T10:00:37;14.90;91.60
59208;DHT22;44977;53.132;6.408;2023-05-16T10:05:39;15.10;92.50
59208;DHT22;44977;53.132;6.408;2023-05-16T10:10:41;15.20;88.10
59208;DHT22;44977;53.132;6.408;2023-05-16T10:15:42;15.40;90.80
59208;DHT22;44977;53.132;6.408;2023-05-16T10:20:45;15.20;81.60
59208;DHT22;44977;53.132;6.408;2023-05-16T10:25:48;15.10;85.90
59208;DHT22;44977;53.132;6.408;2023-05-16T10:30:50;15.20;86.00
59208;DHT22;44977;53.132;6.408;2023-05-16T10:35:51;15.40;86.10
59208;DHT22;44977;53.132;6.408;2023-05-16T10:40:52;15.60;84.70
59208;DHT22;44977;53.132;6.408;2023-05-16T10:45:58;15.60;78.60
59208;DHT22;44977;53.132;6.408;2023-05-16T10:51:03;15.70;77.10
59208;DHT22;44977;53.132;6.408;2023-05-16T10:56:25;15.60;78.80
59208;DHT22;44977;53.132;6.408;2023-05-16T11:01:36;15.60;79.50
59208;DHT22;44977;53.132;6.408;2023-05-16T11:22:08;16.00;79.70
59208;DHT22;44977;53.132;6.408;2023-05-16T11:27:12;15.90;76.60
59208;DHT22;44977;53.132;6.408;2023-05-16T11:32:14;15.70;79.10
59208;DHT22;44977;53.132;6.408;2023-05-16T11:37:18;15.60;78.90
59208;DHT22;44977;53.132;6.408;2023-05-16T11:42:20;15.50;80.20
59208;DHT22;44977;53.132;6.408;2023-05-16T11:47:21;15.60;83.30
59208;DHT22;44977;53.132;6.408;2023-05-16T11:52:21;15.70;81.50
59208;DHT22;44977;53.132;6.408;2023-05-16T11:57:22;15.80;82.50
59208;DHT22;44977;53.132;6.408;2023-05-16T12:02:23;15.80;83.10
59208;DHT22;44977;53.132;6.408;2023-05-16T12:07:29;15.70;81.80
59208;DHT22;44977;53.132;6.408;2023-05-16T12:12:30;15.60;82.50
59208;DHT22;44977;53.132;6.408;2023-05-16T12:17:33;15.60;81.80
59208;DHT22;44977;53.132;6.408;2023-05-16T12:22:34;15.70;80.70
59208;DHT22;44977;53.132;6.408;2023-05-16T12:27:34;15.90;82.30
59208;DHT22;44977;53.132;6.408;2023-05-16T12:32:36;15.80;82.10
59208;DHT22;44977;53.132;6.408;2023-05-16T12:37:37;16.00;80.50
59208;DHT22;44977;53.132;6.408;2023-05-16T12:42:38;15.90;77.80
59208;DHT22;44977;53.132;6.408;2023-05-16T12:47:38;15.80;79.50
59208;DHT22;44977;53.132;6.408;2023-05-16T12:52:50;15.60;81.80
59208;DHT22;44977;53.132;6.408;2023-05-16T12:57:51;15.60;80.70
59208;DHT22;44977;53.132;6.408;2023-05-16T13:02:54;15.40;80.20
59208;DHT22;44977;53.132;6.408;2023-05-16T13:07:55;15.20;80.70
59208;DHT22;44977;53.132;6.408;2023-05-16T13:12:55;15.10;80.90
59208;DHT22;44977;53.132;6.408;2023-05-16T13:17:59;15.00;79.80
59208;DHT22;44977;53.132;6.408;2023-05-16T13:22:59;14.90;82.40
59208;DHT22;44977;53.132;6.408;2023-05-16T13:28:00;14.90;81.60
59208;DHT22;44977;53.132;6.408;2023-05-16T13:33:01;14.80;81.90
59208;DHT22;44977;53.132;6.408;2023-05-16T13:38:01;14.80;83.10
59208;DHT22;44977;53.132;6.408;2023-05-16T13:43:03;14.90;83.60
59208;DHT22;44977;53.132;6.408;2023-05-16T13:48:05;14.90;83.10
59208;DHT22;44977;53.132;6.408;2023-05-16T13:53:06;14.70;91.40
59208;DHT22;44977;53.132;6.408;2023-05-16T13:58:07;14.30;95.50
59208;DHT22;44977;53.132;6.408;2023-05-16T14:03:08;13.90;99.90
59208;DHT22;44977;53.132;6.408;2023-05-16T14:08:09;13.80;99.90
59208;DHT22;44977;53.132;6.408;2023-05-16T14:13:09;14.00;99.90
59208;DHT22;44977;53.132;6.408;2023-05-16T14:18:10;14.10;99.90
59208;DHT22;44977;53.132;6.408;2023-05-16T14:23:12;14.10;99.90
59208;DHT22;44977;53.132;6.408;2023-05-16T14:28:13;14.00;99.90
59208;DHT22;44977;53.132;6.408;2023-05-16T14:33:14;13.80;99.90
59208;DHT22;44977;53.132;6.408;2023-05-16T14:38:15;14.00;99.90
59208;DHT22;44977;53.132;6.408;2023-05-16T14:43:16;14.10;99.90
59208;DHT22;44977;53.132;6.408;2023-05-16T14:48:17;14.10;99.90
59208;DHT22;44977;53.132;6.408;2023-05-16T14:53:18;14.00;99.90
59208;DHT22;44977;53.132;6.408;2023-05-16T14:58:20;14.00;99.90
59208;DHT22;44977;53.132;6.408;2023-05-16T15:03:21;14.00;99.90
59208;DHT22;44977;53.132;6.408;2023-05-16T15:08:22;14.00;99.90
59208;DHT22;44977;53.132;6.408;2023-05-16T15:13:23;13.90;99.90
59208;DHT22;44977;53.132;6.408;2023-05-16T15:18:23;13.90;99.90
59208;DHT22;44977;53.132;6.408;2023-05-16T15:23:24;13.80;99.90
59208;DHT22;44977;53.132;6.408;2023-05-16T15:28:25;13.80;99.90
59208;DHT22;44977;53.132;6.408;2023-05-16T15:33:26;13.80;99.90
59208;DHT22;44977;53.132;6.408;2023-05-16T15:38:27;13.70;99.90
59208;DHT22;44977;53.132;6.408;2023-05-16T15:43:27;13.60;99.90
59208;DHT22;44977;53.132;6.408;2023-05-16T15:48:28;13.40;99.90
59208;DHT22;44977;53.132;6.408;2023-05-16T15:53:29;13.00;99.90
59208;DHT22;44977;53.132;6.408;2023-05-16T15:58:30;12.90;99.90
59208;DHT22;44977;53.132;6.408;2023-05-16T16:03:30;12.80;99.90
59208;DHT22;44977;53.132;6.408;2023-05-16T16:08:31;12.80;99.90
59208;DHT22;44977;53.132;6.408;2023-05-16T16:13:32;12.90;99.90
59208;DHT22;44977;53.132;6.408;2023-05-16T16:18:32;12.90;99.90
59208;DHT22;44977;53.132;6.408;2023-05-16T16:23:34;12.90;99.90
59208;DHT22;44977;53.132;6.408;2023-05-16T16:28:34;12.90;99.90
59208;DHT22;44977;53.132;6.408;2023-05-16T16:33:35;12.90;99.90
59208;DHT22;44977;53.132;6.408;2023-05-16T16:38:36;12.90;99.90
59208;DHT22;44977;53.132;6.408;2023-05-16T16:43:36;13.00;99.90
59208;DHT22;44977;53.132;6.408;2023-05-16T16:48:40;13.10;99.90
59208;DHT22;44977;53.132;6.408;2023-05-16T16:53:40;13.10;99.90
59208;DHT22;44977;53.132;6.408;2023-05-16T16:58:42;13.10;99.90
59208;DHT22;44977;53.132;6.408;2023-05-16T17:03:42;13.10;99.90
59208;DHT22;44977;53.132;6.408;2023-05-16T17:08:43;13.10;99.90
59208;DHT22;44977;53.132;6.408;2023-05-16T17:13:45;13.10;99.90
59208;DHT22;44977;53.132;6.408;2023-05-16T17:18:46;13.10;99.90
59208;DHT22;44977;53.132;6.408;2023-05-16T17:23:47;13.10;99.90
59208;DHT22;44977;53.132;6.408;2023-05-16T17:28:50;13.00;99.90
59208;DHT22;44977;53.132;6.408;2023-05-16T17:33:51;13.00;99.90
59208;DHT22;44977;53.132;6.408;2023-05-16T17:38:52;12.90;99.90
59208;DHT22;44977;53.132;6.408;2023-05-16T17:43:53;12.90;99.90
59208;DHT22;44977;53.132;6.408;2023-05-16T17:48:54;12.80;99.90
59208;DHT22;44977;53.132;6.408;2023-05-16T17:53:54;12.80;99.90
59208;DHT22;44977;53.132;6.408;2023-05-16T17:58:55;12.70;99.90
59208;DHT22;44977;53.132;6.408;2023-05-16T18:03:56;12.70;99.90
59208;DHT22;44977;53.132;6.408;2023-05-16T18:08:57;12.60;99.90
59208;DHT22;44977;53.132;6.408;2023-05-16T18:13:57;12.60;99.90
59208;DHT22;44977;53.132;6.408;2023-05-16T18:18:59;12.50;99.90
59208;DHT22;44977;53.132;6.408;2023-05-16T18:23:59;12.50;99.90
59208;DHT22;44977;53.132;6.408;2023-05-16T18:29:00;12.40;99.90
59208;DHT22;44977;53.132;6.408;2023-05-16T18:34:02;12.40;99.90
59208;DHT22;44977;53.132;6.408;2023-05-16T18:39:03;12.30;99.90
59208;DHT22;44977;53.132;6.408;2023-05-16T18:44:03;12.30;99.90
59208;DHT22;44977;53.132;6.408;2023-05-16T18:49:04;12.30;99.90
59208;DHT22;44977;53.132;6.408;2023-05-16T18:54:05;12.20;99.90
59208;DHT22;44977;53.132;6.408;2023-05-16T18:59:06;12.20;99.90
59208;DHT22;44977;53.132;6.408;2023-05-16T19:04:06;12.20;99.90
59208;DHT22;44977;53.132;6.408;2023-05-16T19:09:07;12.20;99.90
59208;DHT22;44977;53.132;6.408;2023-05-16T19:14:08;12.10;99.90
59208;DHT22;44977;53.132;6.408;2023-05-16T19:19:09;12.10;99.90
59208;DHT22;44977;53.132;6.408;2023-05-16T19:24:10;12.00;99.90
59208;DHT22;44977;53.132;6.408;2023-05-16T19:29:10;11.90;99.90
59208;DHT22;44977;53.132;6.408;2023-05-16T19:34:11;11.90;99.90
59208;DHT22;44977;53.132;6.408;2023-05-16T19:39:12;11.80;99.90
59208;DHT22;44977;53.132;6.408;2023-05-16T19:44:12;11.80;99.90
59208;DHT22;44977;53.132;6.408;2023-05-16T19:49:13;11.70;99.90
59208;DHT22;44977;53.132;6.408;2023-05-16T19:54:17;11.60;99.90
59208;DHT22;44977;53.132;6.408;2023-05-16T19:59:17;11.60;99.90
59208;DHT22;44977;53.132;6.408;2023-05-16T20:04:18;11.50;99.90
59208;DHT22;44977;53.132;6.408;2023-05-16T20:09:19;11.40;99.90
59208;DHT22;44977;53.132;6.408;2023-05-16T20:14:20;11.30;99.90
59208;DHT22;44977;53.132;6.408;2023-05-16T20:19:21;11.20;99.90
59208;DHT22;44977;53.132;6.408;2023-05-16T20:24:21;11.20;99.90
59208;DHT22;44977;53.132;6.408;2023-05-16T20:29:22;11.10;99.90
59208;DHT22;44977;53.132;6.408;2023-05-16T20:34:23;11.10;99.90
59208;DHT22;44977;53.132;6.408;2023-05-16T20:39:24;11.10;99.90
59208;DHT22;44977;53.132;6.408;2023-05-16T20:44:25;11.10;99.90
59208;DHT22;44977;53.132;6.408;2023-05-16T20:49:28;11.10;99.90
59208;DHT22;44977;53.132;6.408;2023-05-16T20:54:31;11.10;99.90
59208;DHT22;44977;53.132;6.408;2023-05-16T20:59:32;11.00;99.90
59208;DHT22;44977;53.132;6.408;2023-05-16T21:04:33;11.10;99.90
59208;DHT22;44977;53.132;6.408;2023-05-16T21:09:34;11.00;99.90
59208;DHT22;44977;53.132;6.408;2023-05-16T21:14:36;11.00;99.90
59208;DHT22;44977;53.132;6.408;2023-05-16T21:19:36;11.00;99.90
59208;DHT22;44977;53.132;6.408;2023-05-16T21:24:38;11.00;99.90
59208;DHT22;44977;53.132;6.408;2023-05-16T21:29:38;11.00;99.90
59208;DHT22;44977;53.132;6.408;2023-05-16T21:34:39;11.00;99.90
59208;DHT22;44977;53.132;6.408;2023-05-16T21:39:40;10.90;99.90
59208;DHT22;44977;53.132;6.408;2023-05-16T21:44:40;10.90;99.90
59208;DHT22;44977;53.132;6.408;2023-05-16T21:49:41;10.90;99.90
59208;DHT22;44977;53.132;6.408;2023-05-16T21:54:42;10.90;99.90
59208;DHT22;44977;53.132;6.408;2023-05-16T21:59:43;10.90;99.90
59208;DHT22;44977;53.132;6.408;2023-05-16T22:04:43;10.90;99.90
59208;DHT22;44977;53.132;6.408;2023-05-16T22:09:45;10.90;99.90
59208;DHT22;44977;53.132;6.408;2023-05-16T22:14:50;10.90;99.90
59208;DHT22;44977;53.132;6.408;2023-05-16T22:19:51;10.90;99.90
59208;DHT22;44977;53.132;6.408;2023-05-16T22:24:52;11.00;99.90
59208;DHT22;44977;53.132;6.408;2023-05-16T22:29:52;11.00;99.90
59208;DHT22;44977;53.132;6.408;2023-05-16T22:34:53;11.00;99.90
59208;DHT22;44977;53.132;6.408;2023-05-16T22:39:54;10.90;99.90
59208;DHT22;44977;53.132;6.408;2023-05-16T22:44:56;10.90;99.90
59208;DHT22;44977;53.132;6.408;2023-05-16T22:49:57;10.90;99.90
59208;DHT22;44977;53.132;6.408;2023-05-16T22:54:57;10.90;99.90
59208;DHT22;44977;53.132;6.408;2023-05-16T23:00:00;10.90;99.90
59208;DHT22;44977;53.132;6.408;2023-05-16T23:05:00;10.90;99.90
59208;DHT22;44977;53.132;6.408;2023-05-16T23:10:01;10.80;99.90
59208;DHT22;44977;53.132;6.408;2023-05-16T23:15:04;10.80;99.90
59208;DHT22;44977;53.132;6.408;2023-05-16T23:20:09;10.70;99.90
59208;DHT22;44977;53.132;6.408;2023-05-16T23:25:10;10.60;99.90
59208;DHT22;44977;53.132;6.408;2023-05-16T23:30:11;10.50;99.90
59208;DHT22;44977;53.132;6.408;2023-05-16T23:35:12;10.40;99.90
59208;DHT22;44977;53.132;6.408;2023-05-16T23:40:12;10.20;99.90
59208;DHT22;44977;53.132;6.408;2023-05-16T23:45:13;10.10;99.90
59208;DHT22;44977;53.132;6.408;2023-05-16T23:50:14;10.00;99.90
59208;DHT22;44977;53.132;6.408;2023-05-16T23:55:16;9.90;99.90
